createdAt,value
2022-10-25T00:01:53.758Z,99785.19
2022-10-25T00:04:23.869Z,99786.34
2022-10-25T00:06:52.844Z,99786.72
2022-10-25T00:09:21.694Z,99795.94
2022-10-25T00:11:53.241Z,99795.56
2022-10-25T00:14:21.929Z,99790.84
2022-10-25T00:16:50.781Z,99792.28
2022-10-25T00:19:19.571Z,99784.84
2022-10-25T00:21:49.529Z,99791.81
2022-10-25T00:24:18.282Z,99796.69
2022-10-25T00:26:46.690Z,99795.56
2022-10-25T00:29:15.348Z,99797.72
2022-10-25T00:31:44.192Z,99799.13
2022-10-25T00:34:13.530Z,99800.63
2022-10-25T00:36:43.163Z,99799.41
2022-10-25T00:39:14.234Z,99801.00
2022-10-25T00:41:44.134Z,99794.69
2022-10-25T00:44:50.210Z,99790.22
2022-10-25T00:47:46.992Z,99785.53
2022-10-25T00:50:23.913Z,99785.34
2022-10-25T00:52:58.745Z,99778.31
2022-10-25T00:55:30.605Z,99780.25
2022-10-25T00:58:04.210Z,99779.53
2022-10-25T01:00:33.701Z,99776.03
2022-10-25T01:03:03.953Z,99772.66
2022-10-25T01:05:35.458Z,99777.28
2022-10-25T01:08:05.659Z,99770.13
2022-10-25T01:10:37.255Z,99768.44
2022-10-25T01:13:06.327Z,99772.00
2022-10-25T01:15:42.788Z,99777.28
2022-10-25T01:18:17.630Z,99775.56
2022-10-25T01:21:09.975Z,99766.19
2022-10-25T01:24:04.798Z,99772.59
2022-10-25T01:27:17.059Z,99774.84
2022-10-25T01:30:05.386Z,99771.44
2022-10-25T01:32:45.728Z,99769.59
2022-10-25T01:35:22.422Z,99774.75
2022-10-25T01:38:06.053Z,99782.38
2022-10-25T01:40:45.369Z,99779.63
2022-10-25T01:43:22.638Z,99775.78
2022-10-25T01:45:59.065Z,99767.09
2022-10-25T01:48:33.523Z,99774.69
2022-10-25T01:51:11.218Z,99774.84
2022-10-25T01:53:47.862Z,99767.34
2022-10-25T01:56:23.514Z,99757.06
2022-10-25T01:59:09.494Z,99761.59
2022-10-25T02:01:48.242Z,99760.91
2022-10-25T02:04:26.265Z,99775.03
2022-10-25T02:07:02.130Z,99768.19
2022-10-25T02:09:38.677Z,99776.19
2022-10-25T02:12:11.219Z,99771.13
2022-10-25T02:14:42.146Z,99775.44
2022-10-25T02:17:17.309Z,99779.00
2022-10-25T02:19:51.930Z,99785.22
2022-10-25T02:22:25.348Z,99796.78
2022-10-25T02:24:56.510Z,99785.59
2022-10-25T02:27:27.338Z,99787.28
2022-10-25T02:29:56.882Z,99795.31
2022-10-25T02:32:27.048Z,99787.47
2022-10-25T02:34:57.685Z,99784.06
2022-10-25T02:37:26.416Z,99792.75
2022-10-25T02:39:55.325Z,99787.47
2022-10-25T02:42:24.082Z,99806.84
2022-10-25T02:44:52.794Z,99816.66
2022-10-25T02:47:21.941Z,99814.09
2022-10-25T02:49:51.010Z,99807.63
2022-10-25T02:52:22.583Z,99811.13
2022-10-25T02:54:51.801Z,99816.25
2022-10-25T02:57:21.180Z,99812.97
2022-10-25T02:59:50.601Z,99812.03
2022-10-25T03:02:19.450Z,99815.69
2022-10-25T03:04:48.537Z,99806.84
2022-10-25T03:07:18.106Z,99801.69
2022-10-25T03:09:48.895Z,99799.22
2022-10-25T03:12:17.780Z,99795.66
2022-10-25T03:14:46.840Z,99780.88
2022-10-25T03:17:15.834Z,99788.03
2022-10-25T03:19:44.905Z,99778.34
2022-10-25T03:22:13.816Z,99785.41
2022-10-25T03:24:43.615Z,99788.03
2022-10-25T03:27:13.957Z,99788.03
2022-10-25T03:29:43.190Z,99790.75
2022-10-25T03:32:11.886Z,99793.50
2022-10-25T03:34:41.050Z,99797.06
2022-10-25T03:37:10.028Z,99800.81
2022-10-25T03:39:38.791Z,99814.94
2022-10-25T03:42:08.321Z,99812.31
2022-10-25T03:44:38.597Z,99817.56
2022-10-25T03:47:07.572Z,99810.41
2022-10-25T03:49:36.440Z,99815.41
2022-10-25T03:52:06.424Z,99803.06
2022-10-25T03:54:36.652Z,99796.03
2022-10-25T03:57:06.512Z,99798.66
2022-10-25T03:59:34.994Z,99796.78
2022-10-25T04:02:05.511Z,99799.53
2022-10-25T04:04:34.465Z,99795.16
2022-10-25T04:07:03.150Z,99782.94
2022-10-25T04:09:31.973Z,99787.47
2022-10-25T04:12:00.851Z,99779.75
2022-10-25T04:14:29.644Z,99793.88
2022-10-25T04:16:58.535Z,99788.03
2022-10-25T04:19:30.101Z,99783.31
2022-10-25T04:21:58.851Z,99793.50
2022-10-25T04:24:27.563Z,99791.25
2022-10-25T04:26:56.781Z,99792.44
2022-10-25T04:29:28.777Z,99796.19
2022-10-25T04:32:02.279Z,99798.06
2022-10-25T04:34:32.597Z,99802.47
2022-10-25T04:37:02.539Z,99804.06
2022-10-25T04:39:34.930Z,99788.13
2022-10-25T04:42:04.422Z,99788.97
2022-10-25T04:44:33.897Z,99790.81
2022-10-25T04:47:02.957Z,99783.97
2022-10-25T04:49:32.951Z,99784.81
2022-10-25T04:52:01.506Z,99786.69
2022-10-25T04:54:29.954Z,99792.81
2022-10-25T04:56:58.797Z,99789.22
2022-10-25T04:59:27.664Z,99794.50
2022-10-25T05:01:56.329Z,99790.75
2022-10-25T05:04:27.524Z,99790.56
2022-10-25T05:06:57.471Z,99789.44
2022-10-25T05:09:26.477Z,99791.72
2022-10-25T05:11:55.969Z,99796.78
2022-10-25T05:14:24.812Z,99803.50
2022-10-25T05:16:56.865Z,99803.25
2022-10-25T05:19:25.411Z,99807.50
2022-10-25T05:21:54.740Z,99809.00
2022-10-25T05:24:26.550Z,99806.09
2022-10-25T05:26:55.721Z,99804.97
2022-10-25T05:29:24.511Z,99792.63
2022-10-25T05:31:53.525Z,99791.03
2022-10-25T05:34:22.518Z,99786.72
2022-10-25T05:36:51.207Z,99796.50
2022-10-25T05:39:19.797Z,99799.88
2022-10-25T05:41:52.610Z,99801.47
2022-10-25T05:44:22.004Z,99806.66
2022-10-25T05:46:52.074Z,99814.38
2022-10-25T05:49:20.798Z,99819.44
2022-10-25T05:51:49.577Z,99816.66
2022-10-25T05:54:18.448Z,99824.53
2022-10-25T05:56:47.561Z,99819.94
2022-10-25T05:59:17.630Z,99817.97
2022-10-25T06:01:47.923Z,99817.84
2022-10-25T06:04:17.891Z,99822.09
2022-10-25T06:06:53.412Z,99828.06
2022-10-25T06:09:24.782Z,99826.16
2022-10-25T06:11:53.897Z,99831.03
2022-10-25T06:14:26.624Z,99836.13
2022-10-25T06:16:55.618Z,99831.53
2022-10-25T06:19:24.408Z,99829.44
2022-10-25T06:22:04.509Z,99829.09
2022-10-25T06:24:35.743Z,99830.59
2022-10-25T06:27:04.868Z,99835.88
2022-10-25T06:29:34.913Z,99838.50
2022-10-25T06:32:04.053Z,99838.50
2022-10-25T06:34:34.812Z,99843.69
2022-10-25T06:37:06.688Z,99841.69
2022-10-25T06:39:35.615Z,99849.22
2022-10-25T06:42:04.505Z,99862.13
2022-10-25T06:44:34.728Z,99862.78
2022-10-25T06:47:17.808Z,99866.84
2022-10-25T06:49:49.728Z,99867.50
2022-10-25T06:52:19.666Z,99862.00
2022-10-25T06:54:50.659Z,99866.38
2022-10-25T06:57:19.929Z,99872.00
2022-10-25T06:59:52.504Z,99868.44
2022-10-25T07:02:21.514Z,99855.13
2022-10-25T07:04:50.422Z,99860.09
2022-10-25T07:07:21.649Z,99863.47
2022-10-25T07:09:50.426Z,99849.38
2022-10-25T07:12:20.417Z,99855.47
2022-10-25T07:14:50.720Z,99851.91
2022-10-25T07:17:19.703Z,99856.88
2022-10-25T07:19:49.139Z,99858.56
2022-10-25T07:22:17.670Z,99858.38
2022-10-25T07:24:47.342Z,99867.41
2022-10-25T07:27:16.766Z,99865.66
2022-10-25T07:29:51.957Z,99862.41
2022-10-25T07:32:22.180Z,99858.03
2022-10-25T07:34:50.892Z,99858.34
2022-10-25T07:37:19.721Z,99861.53
2022-10-25T07:39:51.589Z,99863.56
2022-10-25T07:42:20.719Z,99862.53
2022-10-25T07:44:49.758Z,99863.19
2022-10-25T07:47:20.809Z,99853.47
2022-10-25T07:49:54.641Z,99851.16
2022-10-25T07:52:26.681Z,99852.63
2022-10-25T07:54:58.934Z,99849.13
2022-10-25T07:57:30.862Z,99852.53
2022-10-25T07:59:59.892Z,99853.59
2022-10-25T08:02:29.751Z,99855.19
2022-10-25T08:05:00.061Z,99846.91
2022-10-25T08:07:31.907Z,99845.94
2022-10-25T08:10:05.958Z,99849.41
2022-10-25T08:12:35.510Z,99854.03
2022-10-25T08:15:04.653Z,99849.28
2022-10-25T08:17:33.464Z,99854.13
2022-10-25T08:20:05.971Z,99852.16
2022-10-25T08:22:34.513Z,99845.41
2022-10-25T08:25:05.481Z,99857.53
2022-10-25T08:27:36.541Z,99851.13
2022-10-25T08:30:08.740Z,99859.03
2022-10-25T08:32:39.110Z,99868.63
2022-10-25T08:35:09.907Z,99871.78
2022-10-25T08:37:38.766Z,99869.69
2022-10-25T08:40:09.522Z,99856.56
2022-10-25T08:43:02.134Z,99860.31
2022-10-25T08:45:38.579Z,99859.00
2022-10-25T08:48:14.589Z,99854.41
2022-10-25T08:50:56.311Z,99853.88
2022-10-25T09:02:06.352Z,99856.41
2022-10-25T09:13:51.245Z,99861.88
2022-10-25T09:16:24.043Z,99872.22
2022-10-25T09:18:55.419Z,99862.91
2022-10-25T09:21:29.348Z,99870.97
2022-10-25T09:24:02.658Z,99868.13
2022-10-25T09:26:41.521Z,99866.59
2022-10-25T09:29:16.753Z,99866.19
2022-10-25T09:31:50.341Z,99868.22
2022-10-25T09:34:21.691Z,99866.44
2022-10-25T09:36:54.280Z,99865.47
2022-10-25T09:39:33.214Z,99878.75
2022-10-25T09:42:04.010Z,99874.09
2022-10-25T09:44:38.738Z,99873.03
2022-10-25T09:47:21.984Z,99862.38
2022-10-25T09:49:59.354Z,99859.47
2022-10-25T09:52:34.049Z,99849.81
2022-10-25T09:55:32.673Z,99856.69
2022-10-25T09:58:02.388Z,99848.88
2022-10-25T10:00:34.571Z,99844.03
2022-10-25T10:03:03.396Z,99853.03
2022-10-25T10:05:35.356Z,99849.63
2022-10-25T10:08:04.392Z,99849.63
2022-10-25T10:10:40.346Z,99851.28
2022-10-25T10:13:18.412Z,99850.81
2022-10-25T10:15:56.604Z,99854.13
2022-10-25T10:18:31.234Z,99857.09
2022-10-25T10:21:07.423Z,99854.16
2022-10-25T10:23:45.610Z,99849.97
2022-10-25T10:26:24.941Z,99847.03
2022-10-25T10:29:08.710Z,99849.19
2022-10-25T10:31:39.344Z,99846.19
2022-10-25T10:34:25.617Z,99851.94
2022-10-25T10:37:14.617Z,99847.38
2022-10-25T10:39:52.094Z,99840.28
2022-10-25T10:42:23.762Z,99837.50
2022-10-25T10:45:16.801Z,99846.88
2022-10-25T10:47:56.263Z,99844.28
2022-10-25T10:50:29.017Z,99852.69
2022-10-25T10:53:00.958Z,99850.94
2022-10-25T10:55:32.693Z,99853.28
2022-10-25T10:58:07.070Z,99849.09
2022-10-25T11:00:37.018Z,99846.16
2022-10-25T11:03:59.819Z,99851.50
2022-10-25T11:06:34.575Z,99849.31
2022-10-25T11:09:16.158Z,99842.75
2022-10-25T11:11:45.931Z,99854.81
2022-10-25T11:14:19.941Z,99858.59
2022-10-25T11:16:56.589Z,99857.16
2022-10-25T11:19:36.264Z,99851.84
2022-10-25T11:22:29.413Z,99850.53
2022-10-25T11:25:21.077Z,99855.59
2022-10-25T11:28:13.264Z,99857.44
2022-10-25T11:30:55.941Z,99849.53
2022-10-25T11:33:38.054Z,99865.13
2022-10-25T11:36:33.409Z,99851.75
2022-10-25T11:39:18.332Z,99861.75
2022-10-25T11:41:50.397Z,99858.28
2022-10-25T11:44:42.958Z,99859.56
2022-10-25T11:47:27.498Z,99851.72
2022-10-25T11:50:07.372Z,99859.47
2022-10-25T11:53:15.441Z,99865.03
2022-10-25T11:55:49.782Z,99865.47
2022-10-25T11:58:34.439Z,99869.25
2022-10-25T12:01:15.729Z,99861.50
2022-10-25T12:04:03.586Z,99873.41
2022-10-25T12:06:39.157Z,99862.69
2022-10-25T12:09:17.021Z,99860.72
2022-10-25T12:11:58.906Z,99862.13
2022-10-25T12:14:37.886Z,99863.88
2022-10-25T12:17:16.877Z,99861.75
2022-10-25T12:19:49.726Z,99862.00
2022-10-25T12:22:27.306Z,99859.69
2022-10-25T12:25:01.663Z,99864.44
2022-10-25T12:27:32.037Z,99859.06
2022-10-25T12:30:06.196Z,99866.63
2022-10-25T12:32:40.272Z,99864.72
2022-10-25T12:35:24.817Z,99870.09
2022-10-25T12:37:59.095Z,99870.06
2022-10-25T12:40:41.627Z,99870.38
2022-10-25T12:43:21.120Z,99868.56
2022-10-25T12:46:29.572Z,99865.00
2022-10-25T12:49:23.730Z,99871.28
2022-10-25T12:52:14.639Z,99863.53
2022-10-25T12:55:18.824Z,99872.03
2022-10-25T12:58:03.857Z,99868.88
2022-10-25T13:00:43.393Z,99869.63
2022-10-25T13:03:43.387Z,99870.44
2022-10-25T13:06:40.229Z,99870.81
2022-10-25T13:09:16.771Z,99870.69
2022-10-25T13:11:52.820Z,99879.25
2022-10-25T13:14:31.028Z,99879.00
2022-10-25T13:17:49.276Z,99877.78
2022-10-25T13:20:48.276Z,99881.91
2022-10-25T13:24:08.224Z,99887.97
2022-10-25T13:27:14.134Z,99878.06
2022-10-25T13:30:02.877Z,99872.16
2022-10-25T13:32:42.456Z,99879.75
2022-10-25T13:35:49.766Z,99875.88
2022-10-25T13:38:23.792Z,99881.91
2022-10-25T13:41:17.405Z,99881.69
2022-10-25T13:44:01.937Z,99889.75
2022-10-25T13:46:38.867Z,99886.72
2022-10-25T13:49:30.047Z,99890.38
2022-10-25T13:52:01.711Z,99897.34
2022-10-25T13:54:47.862Z,99892.13
2022-10-25T13:57:49.827Z,99899.97
2022-10-25T14:00:39.402Z,99899.91
2022-10-25T14:03:36.171Z,99903.97
2022-10-25T14:06:28.040Z,99907.66
2022-10-25T14:09:16.944Z,99909.28
2022-10-25T14:11:53.423Z,99909.56
2022-10-25T14:14:30.787Z,99908.75
2022-10-25T14:17:13.239Z,99913.91
2022-10-25T14:19:47.356Z,99918.03
2022-10-25T14:22:25.992Z,99911.50
2022-10-25T14:24:57.715Z,99913.19
2022-10-25T14:27:32.903Z,99909.06
2022-10-25T14:30:24.713Z,99913.19
2022-10-25T14:32:55.663Z,99914.78
2022-10-25T14:35:35.729Z,99925.16
2022-10-25T14:38:16.329Z,99915.19
2022-10-25T14:40:53.348Z,99909.88
2022-10-25T14:43:32.984Z,99915.19
2022-10-25T14:46:15.703Z,99901.31
2022-10-25T14:48:46.976Z,99908.22
2022-10-25T14:51:23.899Z,99918.28
2022-10-25T14:53:56.643Z,99914.38
2022-10-25T14:56:29.747Z,99913.72
2022-10-25T14:59:02.814Z,99919.25
2022-10-25T15:01:36.696Z,99914.16
2022-10-25T15:04:11.297Z,99916.09
2022-10-25T15:06:43.504Z,99906.97
2022-10-25T15:12:21.047Z,99916.97
2022-10-25T15:14:55.006Z,99913.47
2022-10-25T15:17:31.020Z,99922.22
2022-10-25T15:20:02.096Z,99923.06
2022-10-25T15:22:34.941Z,99917.97
2022-10-25T15:25:17.611Z,99918.75
2022-10-25T15:27:46.712Z,99925.19
2022-10-25T15:30:37.657Z,99925.78
2022-10-25T15:33:11.483Z,99931.44
2022-10-25T15:35:48.787Z,99930.38
2022-10-25T15:38:41.907Z,99933.28
2022-10-25T15:41:23.125Z,99935.53
2022-10-25T15:43:53.656Z,99935.63
2022-10-25T15:46:29.811Z,99940.22
2022-10-25T15:49:01.091Z,99940.66
2022-10-25T15:51:31.344Z,99944.44
2022-10-25T15:54:03.238Z,99941.50
2022-10-25T15:56:31.574Z,99942.94
2022-10-25T15:59:02.623Z,99943.16
2022-10-25T16:01:32.367Z,99946.75
2022-10-25T16:04:01.278Z,99952.03
2022-10-25T16:06:29.900Z,99951.63
2022-10-25T16:09:00.127Z,99962.00
2022-10-25T16:11:30.173Z,99961.19
2022-10-25T16:13:58.773Z,99964.97
2022-10-25T16:16:44.838Z,99963.47
2022-10-25T16:19:15.560Z,99970.72
2022-10-25T16:21:44.433Z,99966.28
2022-10-25T16:24:13.880Z,99971.56
2022-10-25T16:26:45.332Z,99975.91
2022-10-25T16:29:19.384Z,99975.78
2022-10-25T16:31:48.292Z,99973.94
2022-10-25T16:34:19.752Z,99980.06
2022-10-25T16:36:49.341Z,99979.31
2022-10-25T16:39:18.887Z,99977.53
2022-10-25T16:41:49.324Z,99985.44
2022-10-25T16:44:20.512Z,99991.63
2022-10-25T16:46:48.911Z,99989.97
2022-10-25T16:49:17.600Z,99995.25
2022-10-25T16:51:50.130Z,99998.19
2022-10-25T16:54:21.887Z,99997.31
2022-10-25T16:56:56.274Z,99998.28
2022-10-25T16:59:26.429Z,99996.22
2022-10-25T17:01:58.230Z,99998.47
2022-10-25T17:04:28.031Z,99999.81
2022-10-25T17:06:56.595Z,100001.13
2022-10-25T17:09:26.556Z,100003.84
2022-10-25T17:11:57.663Z,100011.03
2022-10-25T17:14:26.393Z,100001.59
2022-10-25T17:16:58.316Z,100008.66
2022-10-25T17:19:29.660Z,100001.88
2022-10-25T17:21:58.293Z,100010.69
2022-10-25T17:24:27.677Z,100013.53
2022-10-25T17:26:57.814Z,100017.22
2022-10-25T17:29:28.169Z,100014.81
2022-10-25T17:31:57.311Z,100018.50
2022-10-25T17:34:26.621Z,100022.09
2022-10-25T17:36:55.218Z,100020.47
2022-10-25T17:39:24.297Z,100026.78
2022-10-25T17:41:52.834Z,100017.63
2022-10-25T17:44:22.857Z,100027.44
2022-10-25T17:46:52.270Z,100025.81
2022-10-25T17:49:21.275Z,100026.06
2022-10-25T17:51:49.810Z,100028.13
2022-10-25T17:54:19.431Z,100025.78
2022-10-25T17:56:47.984Z,100030.41
2022-10-25T17:59:17.045Z,100036.41
2022-10-25T18:01:46.952Z,100029.53
2022-10-25T18:04:17.925Z,100040.09
2022-10-25T18:06:46.801Z,100040.84
2022-10-25T18:09:15.811Z,100033.94
2022-10-25T18:11:44.937Z,100040.84
2022-10-25T18:14:13.349Z,100046.88
2022-10-25T18:16:42.359Z,100044.16
2022-10-25T18:19:14.774Z,100038.03
2022-10-25T18:21:43.753Z,100038.09
2022-10-25T18:24:14.546Z,100036.41
2022-10-25T18:26:43.377Z,100034.91
2022-10-25T18:29:12.686Z,100033.22
2022-10-25T18:31:43.733Z,100035.06
2022-10-25T18:34:16.053Z,100042.97
2022-10-25T18:36:44.989Z,100034.97
2022-10-25T18:39:16.760Z,100037.69
2022-10-25T18:41:45.253Z,100036.97
2022-10-25T18:44:15.386Z,100041.38
2022-10-25T18:46:44.470Z,100038.84
2022-10-25T18:49:17.755Z,100041.66
2022-10-25T18:51:48.243Z,100042.59
2022-10-25T18:54:17.304Z,100045.16
2022-10-25T18:56:46.320Z,100043.25
2022-10-25T18:59:15.126Z,100036.28
2022-10-25T19:01:44.148Z,100041.38
2022-10-25T19:04:14.662Z,100030.16
2022-10-25T19:06:44.516Z,100038.16
2022-10-25T19:09:15.665Z,100039.97
2022-10-25T19:11:44.198Z,100042.41
2022-10-25T19:14:13.392Z,100047.88
2022-10-25T19:16:44.077Z,100043.72
2022-10-25T19:19:13.251Z,100047.53
2022-10-25T19:21:45.318Z,100057.50
2022-10-25T19:24:16.157Z,100054.34
2022-10-25T19:26:45.310Z,100054.63
2022-10-25T19:29:14.293Z,100053.25
2022-10-25T19:31:48.399Z,100057.06
2022-10-25T19:34:17.177Z,100066.28
2022-10-25T19:36:47.196Z,100063.06
2022-10-25T19:39:15.992Z,100069.25
2022-10-25T19:41:44.943Z,100070.16
2022-10-25T19:44:13.654Z,100065.19
2022-10-25T19:46:42.635Z,100074.22
2022-10-25T19:49:12.237Z,100067.50
2022-10-25T19:51:41.279Z,100073.47
2022-10-25T19:54:11.517Z,100072.69
2022-10-25T19:56:40.005Z,100074.41
2022-10-25T19:59:08.728Z,100078.66
2022-10-25T20:01:37.659Z,100082.00
2022-10-25T20:04:06.912Z,100088.00
2022-10-25T20:06:36.617Z,100090.56
2022-10-25T20:09:12.772Z,100093.13
2022-10-25T20:11:42.879Z,100093.13
2022-10-25T20:14:11.694Z,100094.66
2022-10-25T20:16:40.483Z,100100.69
2022-10-25T20:19:09.935Z,100103.31
2022-10-25T20:21:38.771Z,100085.81
2022-10-25T20:24:09.607Z,100100.69
2022-10-25T20:26:40.314Z,100110.28
2022-10-25T20:29:18.641Z,100100.75
2022-10-25T20:31:49.969Z,100110.28
2022-10-25T20:34:19.748Z,100109.38
2022-10-25T20:36:50.835Z,100107.56
2022-10-25T20:39:20.731Z,100110.13
2022-10-25T20:41:50.347Z,100112.66
2022-10-25T20:44:20.349Z,100118.59
2022-10-25T20:46:51.711Z,100119.41
2022-10-25T20:49:20.284Z,100114.88
2022-10-25T20:51:49.572Z,100114.00
2022-10-25T20:54:20.977Z,100111.31
2022-10-25T20:56:49.531Z,100123.56
2022-10-25T20:59:19.691Z,100114.72
2022-10-25T21:01:48.324Z,100125.19
2022-10-25T21:04:25.851Z,100120.00
2022-10-25T21:07:05.018Z,100121.75
2022-10-25T21:09:33.530Z,100117.16
2022-10-25T21:12:02.062Z,100119.78
2022-10-25T21:14:32.100Z,100122.53
2022-10-25T21:17:01.049Z,100126.09
2022-10-25T21:19:29.595Z,100118.28
2022-10-25T21:21:58.272Z,100108.66
2022-10-25T21:24:26.998Z,100117.59
2022-10-25T21:26:58.672Z,100119.28
2022-10-25T21:29:27.786Z,100122.78
2022-10-25T21:31:57.826Z,100118.38
2022-10-25T21:34:26.611Z,100113.03
2022-10-25T21:36:54.980Z,100106.03
2022-10-25T21:39:24.620Z,100102.50
2022-10-25T21:41:53.285Z,100109.44
2022-10-25T21:44:25.314Z,100110.97
2022-10-25T21:46:54.128Z,100117.09
2022-10-25T21:49:23.993Z,100107.47
2022-10-25T21:51:52.570Z,100128.47
2022-10-25T21:54:21.835Z,100132.88
2022-10-25T21:56:52.654Z,100120.66
2022-10-25T21:59:21.562Z,100129.59
2022-10-25T22:01:52.213Z,100121.75
2022-10-25T22:04:21.256Z,100123.63
2022-10-25T22:06:51.336Z,100129.81
2022-10-25T22:09:21.607Z,100129.81
2022-10-25T22:11:52.983Z,100131.72
2022-10-25T22:14:21.432Z,100134.34
2022-10-25T22:16:51.979Z,100134.41
2022-10-25T22:21:53.187Z,100130.09
2022-10-25T22:24:21.825Z,100129.34
2022-10-25T22:26:51.736Z,100130.44
2022-10-25T22:29:20.093Z,100138.34
2022-10-25T22:31:50.196Z,100129.66
2022-10-25T22:34:21.645Z,100132.47
2022-10-25T22:36:50.034Z,100129.22
2022-10-25T22:39:23.347Z,100135.50
2022-10-25T22:41:55.094Z,100130.47
2022-10-25T22:44:23.529Z,100134.19
2022-10-25T22:46:54.322Z,100138.94
2022-10-25T22:49:23.239Z,100135.00
2022-10-25T22:52:05.866Z,100143.13
2022-10-25T22:54:36.451Z,100132.19
2022-10-25T22:57:05.091Z,100141.09
2022-10-25T22:59:33.551Z,100137.81
2022-10-25T23:02:01.910Z,100139.94
2022-10-25T23:04:30.641Z,100141.94
2022-10-25T23:06:59.049Z,100139.63
2022-10-25T23:12:02.530Z,100141.09
2022-10-25T23:14:31.913Z,100145.63
2022-10-25T23:17:03.586Z,100144.00
2022-10-25T23:19:32.025Z,100147.69
2022-10-25T23:22:00.774Z,100146.16
2022-10-25T23:24:32.467Z,100158.59
2022-10-25T23:27:02.238Z,100154.44
2022-10-25T23:29:30.917Z,100159.97
2022-10-25T23:31:59.616Z,100165.47
2022-10-25T23:34:28.251Z,100164.84
2022-10-25T23:36:56.695Z,100158.91
2022-10-25T23:39:25.533Z,100159.19
2022-10-25T23:41:57.066Z,100161.03
2022-10-25T23:44:26.854Z,100156.22
2022-10-25T23:46:55.782Z,100163.31
2022-10-25T23:49:24.842Z,100153.91
2022-10-25T23:51:53.545Z,100162.69
2022-10-25T23:54:25.467Z,100165.53
2022-10-25T23:56:53.729Z,100172.84
